sensor_id;sensor_type;location;lat;lon;timestamp;P1;durP1;ratioP1;P2;durP2;ratioP2
9270;SDS011;4673;53.458;9.940;2023-01-06T00:02:19;9.17;;;9.07;;
9270;SDS011;4673;53.458;9.940;2023-01-06T00:04:44;9.57;;;9.47;;
9270;SDS011;4673;53.458;9.940;2023-01-06T00:07:10;9.37;;;9.27;;
9270;SDS011;4673;53.458;9.940;2023-01-06T00:09:35;11.87;;;11.77;;
9270;SDS011;4673;53.458;9.940;2023-01-06T00:12:02;10.80;;;10.70;;
9270;SDS011;4673;53.458;9.940;2023-01-06T00:14:28;10.53;;;10.43;;
9270;SDS011;4673;53.458;9.940;2023-01-06T00:16:54;10.83;;;10.73;;
9270;SDS011;4673;53.458;9.940;2023-01-06T00:19:20;11.07;;;10.97;;
9270;SDS011;4673;53.458;9.940;2023-01-06T00:21:45;10.93;;;10.83;;
9270;SDS011;4673;53.458;9.940;2023-01-06T00:24:11;11.00;;;10.90;;
9270;SDS011;4673;53.458;9.940;2023-01-06T00:26:37;10.83;;;10.73;;
9270;SDS011;4673;53.458;9.940;2023-01-06T00:29:03;9.67;;;9.60;;
9270;SDS011;4673;53.458;9.940;2023-01-06T00:31:29;10.10;;;10.00;;
9270;SDS011;4673;53.458;9.940;2023-01-06T00:33:55;11.20;;;11.10;;
9270;SDS011;4673;53.458;9.940;2023-01-06T00:36:21;10.50;;;10.40;;
9270;SDS011;4673;53.458;9.940;2023-01-06T00:38:48;10.40;;;10.30;;
9270;SDS011;4673;53.458;9.940;2023-01-06T00:41:15;10.63;;;10.53;;
9270;SDS011;4673;53.458;9.940;2023-01-06T00:44:00;10.80;;;10.70;;
9270;SDS011;4673;53.458;9.940;2023-01-06T00:46:26;11.40;;;11.30;;
9270;SDS011;4673;53.458;9.940;2023-01-06T00:48:53;10.33;;;10.23;;
9270;SDS011;4673;53.458;9.940;2023-01-06T00:51:20;10.30;;;10.20;;
9270;SDS011;4673;53.458;9.940;2023-01-06T00:53:45;10.77;;;10.67;;
9270;SDS011;4673;53.458;9.940;2023-01-06T00:56:11;9.43;;;9.43;;
9270;SDS011;4673;53.458;9.940;2023-01-06T00:58:37;10.47;;;10.37;;
9270;SDS011;4673;53.458;9.940;2023-01-06T01:01:06;10.73;;;10.63;;
9270;SDS011;4673;53.458;9.940;2023-01-06T01:03:33;10.53;;;10.43;;
9270;SDS011;4673;53.458;9.940;2023-01-06T01:06:01;11.17;;;11.07;;
9270;SDS011;4673;53.458;9.940;2023-01-06T01:08:27;10.00;;;10.00;;
9270;SDS011;4673;53.458;9.940;2023-01-06T01:10:54;9.57;;;9.57;;
9270;SDS011;4673;53.458;9.940;2023-01-06T01:13:20;11.63;;;11.53;;
9270;SDS011;4673;53.458;9.940;2023-01-06T01:15:46;9.33;;;9.23;;
9270;SDS011;4673;53.458;9.940;2023-01-06T01:18:13;10.00;;;10.00;;
9270;SDS011;4673;53.458;9.940;2023-01-06T01:20:39;9.30;;;9.30;;
9270;SDS011;4673;53.458;9.940;2023-01-06T01:23:05;9.03;;;9.03;;
9270;SDS011;4673;53.458;9.940;2023-01-06T01:25:30;8.90;;;8.90;;
9270;SDS011;4673;53.458;9.940;2023-01-06T01:27:56;8.67;;;8.67;;
9270;SDS011;4673;53.458;9.940;2023-01-06T01:30:21;7.93;;;7.93;;
9270;SDS011;4673;53.458;9.940;2023-01-06T01:32:47;8.90;;;8.90;;
9270;SDS011;4673;53.458;9.940;2023-01-06T01:35:13;8.57;;;8.57;;
9270;SDS011;4673;53.458;9.940;2023-01-06T01:37:39;8.33;;;8.33;;
9270;SDS011;4673;53.458;9.940;2023-01-06T01:40:04;8.60;;;8.60;;
9270;SDS011;4673;53.458;9.940;2023-01-06T01:42:31;8.50;;;8.50;;
9270;SDS011;4673;53.458;9.940;2023-01-06T01:47:31;8.83;;;8.83;;
9270;SDS011;4673;53.458;9.940;2023-01-06T01:53:13;9.27;;;9.27;;
9270;SDS011;4673;53.458;9.940;2023-01-06T01:55:41;9.20;;;9.20;;
9270;SDS011;4673;53.458;9.940;2023-01-06T01:58:15;9.47;;;9.47;;
9270;SDS011;4673;53.458;9.940;2023-01-06T02:00:45;8.87;;;8.87;;
9270;SDS011;4673;53.458;9.940;2023-01-06T02:03:11;8.63;;;8.63;;
9270;SDS011;4673;53.458;9.940;2023-01-06T02:05:38;8.93;;;8.83;;
9270;SDS011;4673;53.458;9.940;2023-01-06T02:10:54;9.43;;;9.43;;
9270;SDS011;4673;53.458;9.940;2023-01-06T02:13:19;9.33;;;9.33;;
9270;SDS011;4673;53.458;9.940;2023-01-06T02:15:45;9.10;;;9.10;;
9270;SDS011;4673;53.458;9.940;2023-01-06T02:26:30;8.10;;;8.10;;
9270;SDS011;4673;53.458;9.940;2023-01-06T02:34:28;7.73;;;7.73;;
9270;SDS011;4673;53.458;9.940;2023-01-06T02:45:20;9.67;;;9.67;;
9270;SDS011;4673;53.458;9.940;2023-01-06T02:50:21;12.03;;;11.93;;
9270;SDS011;4673;53.458;9.940;2023-01-06T02:55:48;10.90;;;10.83;;
9270;SDS011;4673;53.458;9.940;2023-01-06T02:58:33;12.07;;;11.97;;
9270;SDS011;4673;53.458;9.940;2023-01-06T03:03:38;12.00;;;11.90;;
9270;SDS011;4673;53.458;9.940;2023-01-06T03:06:09;12.00;;;11.90;;
9270;SDS011;4673;53.458;9.940;2023-01-06T03:08:39;11.67;;;11.57;;
9270;SDS011;4673;53.458;9.940;2023-01-06T03:11:07;11.03;;;10.93;;
9270;SDS011;4673;53.458;9.940;2023-01-06T03:16:17;12.00;;;11.90;;
9270;SDS011;4673;53.458;9.940;2023-01-06T03:18:44;12.27;;;12.17;;
9270;SDS011;4673;53.458;9.940;2023-01-06T03:21:15;12.70;;;12.60;;
9270;SDS011;4673;53.458;9.940;2023-01-06T03:23:43;13.37;;;13.27;;
9270;SDS011;4673;53.458;9.940;2023-01-06T03:26:10;13.40;;;13.30;;
9270;SDS011;4673;53.458;9.940;2023-01-06T03:28:36;12.70;;;12.60;;
9270;SDS011;4673;53.458;9.940;2023-01-06T03:42:13;16.63;;;16.43;;
9270;SDS011;4673;53.458;9.940;2023-01-06T03:45:12;15.20;;;15.10;;
9270;SDS011;4673;53.458;9.940;2023-01-06T03:51:00;16.57;;;16.37;;
9270;SDS011;4673;53.458;9.940;2023-01-06T03:55:58;17.20;;;17.03;;
9270;SDS011;4673;53.458;9.940;2023-01-06T03:58:30;16.40;;;16.30;;
9270;SDS011;4673;53.458;9.940;2023-01-06T04:00:58;16.40;;;16.23;;
9270;SDS011;4673;53.458;9.940;2023-01-06T04:03:25;16.80;;;16.70;;
9270;SDS011;4673;53.458;9.940;2023-01-06T04:05:51;16.50;;;16.40;;
9270;SDS011;4673;53.458;9.940;2023-01-06T04:08:18;16.43;;;16.33;;
9270;SDS011;4673;53.458;9.940;2023-01-06T04:10:44;17.07;;;16.97;;
9270;SDS011;4673;53.458;9.940;2023-01-06T04:13:09;16.23;;;16.03;;
9270;SDS011;4673;53.458;9.940;2023-01-06T04:15:35;16.87;;;16.77;;
9270;SDS011;4673;53.458;9.940;2023-01-06T04:18:01;17.00;;;16.90;;
9270;SDS011;4673;53.458;9.940;2023-01-06T04:20:28;16.70;;;16.50;;
9270;SDS011;4673;53.458;9.940;2023-01-06T04:22:55;18.97;;;18.77;;
9270;SDS011;4673;53.458;9.940;2023-01-06T04:25:21;15.80;;;15.70;;
9270;SDS011;4673;53.458;9.940;2023-01-06T04:27:47;17.30;;;17.10;;
9270;SDS011;4673;53.458;9.940;2023-01-06T04:30:13;16.40;;;16.30;;
9270;SDS011;4673;53.458;9.940;2023-01-06T04:32:39;16.00;;;15.90;;
9270;SDS011;4673;53.458;9.940;2023-01-06T04:35:05;18.13;;;17.97;;
9270;SDS011;4673;53.458;9.940;2023-01-06T04:37:31;18.37;;;18.17;;
9270;SDS011;4673;53.458;9.940;2023-01-06T04:39:56;17.80;;;17.70;;
9270;SDS011;4673;53.458;9.940;2023-01-06T04:42:22;18.73;;;18.53;;
9270;SDS011;4673;53.458;9.940;2023-01-06T04:44:47;18.53;;;18.33;;
9270;SDS011;4673;53.458;9.940;2023-01-06T04:47:13;19.37;;;19.17;;
9270;SDS011;4673;53.458;9.940;2023-01-06T04:49:39;18.73;;;18.53;;
9270;SDS011;4673;53.458;9.940;2023-01-06T04:52:05;19.33;;;19.13;;
9270;SDS011;4673;53.458;9.940;2023-01-06T04:54:32;19.57;;;19.37;;
9270;SDS011;4673;53.458;9.940;2023-01-06T04:56:58;19.00;;;18.87;;
9270;SDS011;4673;53.458;9.940;2023-01-06T04:59:24;19.00;;;18.80;;
9270;SDS011;4673;53.458;9.940;2023-01-06T05:01:50;17.20;;;17.10;;
9270;SDS011;4673;53.458;9.940;2023-01-06T05:04:15;17.93;;;17.83;;
9270;SDS011;4673;53.458;9.940;2023-01-06T05:06:41;17.03;;;16.83;;
9270;SDS011;4673;53.458;9.940;2023-01-06T05:09:07;18.43;;;18.23;;
9270;SDS011;4673;53.458;9.940;2023-01-06T05:11:32;17.30;;;17.20;;
9270;SDS011;4673;53.458;9.940;2023-01-06T05:13:58;16.83;;;16.70;;
9270;SDS011;4673;53.458;9.940;2023-01-06T05:16:24;15.93;;;15.83;;
9270;SDS011;4673;53.458;9.940;2023-01-06T05:18:52;18.80;;;18.60;;
9270;SDS011;4673;53.458;9.940;2023-01-06T05:21:19;17.77;;;17.57;;
9270;SDS011;4673;53.458;9.940;2023-01-06T05:23:45;20.17;;;19.97;;
9270;SDS011;4673;53.458;9.940;2023-01-06T05:26:15;19.27;;;19.07;;
9270;SDS011;4673;53.458;9.940;2023-01-06T05:28:42;19.47;;;19.27;;
9270;SDS011;4673;53.458;9.940;2023-01-06T05:31:08;19.83;;;19.70;;
9270;SDS011;4673;53.458;9.940;2023-01-06T05:33:35;19.27;;;19.17;;
9270;SDS011;4673;53.458;9.940;2023-01-06T05:36:11;19.43;;;19.33;;
9270;SDS011;4673;53.458;9.940;2023-01-06T05:38:38;20.53;;;20.33;;
9270;SDS011;4673;53.458;9.940;2023-01-06T05:41:04;21.60;;;21.40;;
9270;SDS011;4673;53.458;9.940;2023-01-06T05:43:31;17.10;;;17.00;;
9270;SDS011;4673;53.458;9.940;2023-01-06T05:45:57;17.87;;;17.67;;
9270;SDS011;4673;53.458;9.940;2023-01-06T05:48:25;16.80;;;16.70;;
9270;SDS011;4673;53.458;9.940;2023-01-06T05:50:51;19.33;;;19.13;;
9270;SDS011;4673;53.458;9.940;2023-01-06T05:53:24;17.77;;;17.67;;
9270;SDS011;4673;53.458;9.940;2023-01-06T05:55:49;19.40;;;19.20;;
9270;SDS011;4673;53.458;9.940;2023-01-06T05:58:15;19.33;;;19.13;;
9270;SDS011;4673;53.458;9.940;2023-01-06T06:00:40;20.40;;;20.20;;
9270;SDS011;4673;53.458;9.940;2023-01-06T06:03:06;21.83;;;21.63;;
9270;SDS011;4673;53.458;9.940;2023-01-06T06:05:32;22.03;;;21.83;;
9270;SDS011;4673;53.458;9.940;2023-01-06T06:07:57;19.87;;;19.77;;
9270;SDS011;4673;53.458;9.940;2023-01-06T06:10:23;22.53;;;22.33;;
9270;SDS011;4673;53.458;9.940;2023-01-06T06:12:55;21.70;;;21.50;;
9270;SDS011;4673;53.458;9.940;2023-01-06T06:15:20;23.13;;;22.93;;
9270;SDS011;4673;53.458;9.940;2023-01-06T06:17:49;22.07;;;21.87;;
9270;SDS011;4673;53.458;9.940;2023-01-06T06:20:15;21.17;;;21.07;;
9270;SDS011;4673;53.458;9.940;2023-01-06T06:22:40;21.60;;;21.40;;
9270;SDS011;4673;53.458;9.940;2023-01-06T06:25:06;22.53;;;22.33;;
9270;SDS011;4673;53.458;9.940;2023-01-06T06:27:32;20.67;;;20.47;;
9270;SDS011;4673;53.458;9.940;2023-01-06T06:29:58;21.53;;;21.33;;
9270;SDS011;4673;53.458;9.940;2023-01-06T06:32:23;19.97;;;19.77;;
9270;SDS011;4673;53.458;9.940;2023-01-06T06:34:49;20.27;;;20.07;;
9270;SDS011;4673;53.458;9.940;2023-01-06T06:37:14;21.27;;;21.17;;
9270;SDS011;4673;53.458;9.940;2023-01-06T06:39:40;18.43;;;18.33;;
9270;SDS011;4673;53.458;9.940;2023-01-06T06:42:06;20.87;;;20.73;;
9270;SDS011;4673;53.458;9.940;2023-01-06T06:44:31;19.83;;;19.67;;
9270;SDS011;4673;53.458;9.940;2023-01-06T06:46:57;20.13;;;19.93;;
9270;SDS011;4673;53.458;9.940;2023-01-06T06:49:22;19.10;;;19.00;;
9270;SDS011;4673;53.458;9.940;2023-01-06T06:51:48;18.67;;;18.57;;
9270;SDS011;4673;53.458;9.940;2023-01-06T06:54:14;19.03;;;18.83;;
9270;SDS011;4673;53.458;9.940;2023-01-06T06:56:40;18.70;;;18.60;;
9270;SDS011;4673;53.458;9.940;2023-01-06T06:59:05;17.30;;;17.20;;
9270;SDS011;4673;53.458;9.940;2023-01-06T07:01:31;16.30;;;16.20;;
9270;SDS011;4673;53.458;9.940;2023-01-06T07:03:56;16.83;;;16.73;;
9270;SDS011;4673;53.458;9.940;2023-01-06T07:06:22;17.33;;;17.23;;
9270;SDS011;4673;53.458;9.940;2023-01-06T07:08:50;17.00;;;16.90;;
9270;SDS011;4673;53.458;9.940;2023-01-06T07:11:15;17.17;;;17.07;;
9270;SDS011;4673;53.458;9.940;2023-01-06T07:13:41;16.50;;;16.40;;
9270;SDS011;4673;53.458;9.940;2023-01-06T07:16:07;15.17;;;15.07;;
9270;SDS011;4673;53.458;9.940;2023-01-06T07:18:33;15.17;;;15.07;;
9270;SDS011;4673;53.458;9.940;2023-01-06T07:20:59;17.40;;;17.30;;
9270;SDS011;4673;53.458;9.940;2023-01-06T07:23:24;16.03;;;15.93;;
9270;SDS011;4673;53.458;9.940;2023-01-06T07:25:51;14.03;;;13.93;;
9270;SDS011;4673;53.458;9.940;2023-01-06T07:28:17;16.67;;;16.57;;
9270;SDS011;4673;53.458;9.940;2023-01-06T07:30:43;15.00;;;14.90;;
9270;SDS011;4673;53.458;9.940;2023-01-06T07:33:09;14.13;;;14.03;;
9270;SDS011;4673;53.458;9.940;2023-01-06T07:35:35;15.60;;;15.50;;
9270;SDS011;4673;53.458;9.940;2023-01-06T07:38:04;14.90;;;14.80;;
9270;SDS011;4673;53.458;9.940;2023-01-06T07:40:30;15.30;;;15.20;;
9270;SDS011;4673;53.458;9.940;2023-01-06T07:42:56;15.43;;;15.33;;
9270;SDS011;4673;53.458;9.940;2023-01-06T07:45:22;16.23;;;16.13;;
9270;SDS011;4673;53.458;9.940;2023-01-06T07:47:48;17.17;;;17.07;;
9270;SDS011;4673;53.458;9.940;2023-01-06T07:50:13;18.63;;;18.53;;
9270;SDS011;4673;53.458;9.940;2023-01-06T07:52:39;14.70;;;14.60;;
9270;SDS011;4673;53.458;9.940;2023-01-06T07:55:05;16.47;;;16.37;;
9270;SDS011;4673;53.458;9.940;2023-01-06T07:57:31;16.47;;;16.37;;
9270;SDS011;4673;53.458;9.940;2023-01-06T07:59:57;16.13;;;16.03;;
9270;SDS011;4673;53.458;9.940;2023-01-06T08:02:22;15.90;;;15.80;;
9270;SDS011;4673;53.458;9.940;2023-01-06T08:04:48;15.83;;;15.73;;
9270;SDS011;4673;53.458;9.940;2023-01-06T08:07:15;15.37;;;15.27;;
9270;SDS011;4673;53.458;9.940;2023-01-06T08:09:41;15.73;;;15.63;;
9270;SDS011;4673;53.458;9.940;2023-01-06T08:12:06;13.77;;;13.67;;
9270;SDS011;4673;53.458;9.940;2023-01-06T08:14:32;13.83;;;13.73;;
9270;SDS011;4673;53.458;9.940;2023-01-06T08:16:58;14.10;;;14.00;;
9270;SDS011;4673;53.458;9.940;2023-01-06T08:19:24;14.83;;;14.73;;
9270;SDS011;4673;53.458;9.940;2023-01-06T08:21:49;13.80;;;13.70;;
9270;SDS011;4673;53.458;9.940;2023-01-06T08:24:15;14.20;;;14.10;;
9270;SDS011;4673;53.458;9.940;2023-01-06T08:26:41;13.90;;;13.90;;
9270;SDS011;4673;53.458;9.940;2023-01-06T08:29:06;13.67;;;13.57;;
9270;SDS011;4673;53.458;9.940;2023-01-06T08:31:33;14.70;;;14.70;;
9270;SDS011;4673;53.458;9.940;2023-01-06T08:34:00;14.47;;;14.47;;
9270;SDS011;4673;53.458;9.940;2023-01-06T08:36:26;12.10;;;12.03;;
9270;SDS011;4673;53.458;9.940;2023-01-06T08:38:52;11.57;;;11.57;;
9270;SDS011;4673;53.458;9.940;2023-01-06T08:41:18;12.30;;;12.30;;
9270;SDS011;4673;53.458;9.940;2023-01-06T08:43:44;11.53;;;11.53;;
9270;SDS011;4673;53.458;9.940;2023-01-06T08:46:12;11.97;;;11.97;;
9270;SDS011;4673;53.458;9.940;2023-01-06T08:48:40;10.63;;;10.63;;
9270;SDS011;4673;53.458;9.940;2023-01-06T08:51:07;9.43;;;9.43;;
9270;SDS011;4673;53.458;9.940;2023-01-06T08:53:37;9.63;;;9.63;;
9270;SDS011;4673;53.458;9.940;2023-01-06T08:56:03;10.27;;;10.27;;
9270;SDS011;4673;53.458;9.940;2023-01-06T08:58:29;8.93;;;8.93;;
9270;SDS011;4673;53.458;9.940;2023-01-06T09:00:55;9.60;;;9.60;;
9270;SDS011;4673;53.458;9.940;2023-01-06T09:03:20;9.83;;;9.83;;
9270;SDS011;4673;53.458;9.940;2023-01-06T09:05:53;9.80;;;9.77;;
9270;SDS011;4673;53.458;9.940;2023-01-06T09:08:21;10.17;;;10.17;;
9270;SDS011;4673;53.458;9.940;2023-01-06T09:10:47;8.47;;;8.47;;
9270;SDS011;4673;53.458;9.940;2023-01-06T09:13:13;8.47;;;8.47;;
9270;SDS011;4673;53.458;9.940;2023-01-06T09:15:40;8.40;;;8.40;;
9270;SDS011;4673;53.458;9.940;2023-01-06T09:18:07;8.67;;;8.67;;
9270;SDS011;4673;53.458;9.940;2023-01-06T09:20:34;8.77;;;8.77;;
9270;SDS011;4673;53.458;9.940;2023-01-06T09:23:00;9.13;;;9.13;;
9270;SDS011;4673;53.458;9.940;2023-01-06T09:25:26;7.83;;;7.83;;
9270;SDS011;4673;53.458;9.940;2023-01-06T09:27:52;6.83;;;6.83;;
9270;SDS011;4673;53.458;9.940;2023-01-06T09:30:17;7.87;;;7.87;;
9270;SDS011;4673;53.458;9.940;2023-01-06T09:32:43;7.83;;;7.83;;
9270;SDS011;4673;53.458;9.940;2023-01-06T09:35:09;7.67;;;7.67;;
9270;SDS011;4673;53.458;9.940;2023-01-06T09:37:35;7.00;;;7.00;;
9270;SDS011;4673;53.458;9.940;2023-01-06T09:40:01;5.83;;;5.83;;
9270;SDS011;4673;53.458;9.940;2023-01-06T09:42:43;6.33;;;6.33;;
9270;SDS011;4673;53.458;9.940;2023-01-06T09:45:19;5.33;;;5.33;;
9270;SDS011;4673;53.458;9.940;2023-01-06T09:47:53;5.10;;;5.10;;
9270;SDS011;4673;53.458;9.940;2023-01-06T09:55:47;5.23;;;5.23;;
9270;SDS011;4673;53.458;9.940;2023-01-06T10:01:00;5.10;;;5.10;;
9270;SDS011;4673;53.458;9.940;2023-01-06T10:03:31;5.60;;;5.60;;
9270;SDS011;4673;53.458;9.940;2023-01-06T10:08:38;5.40;;;5.40;;
9270;SDS011;4673;53.458;9.940;2023-01-06T10:25:11;4.60;;;4.60;;
9270;SDS011;4673;53.458;9.940;2023-01-06T10:27:50;4.60;;;4.60;;
9270;SDS011;4673;53.458;9.940;2023-01-06T10:30:21;4.40;;;4.40;;
9270;SDS011;4673;53.458;9.940;2023-01-06T10:32:53;4.30;;;4.30;;
9270;SDS011;4673;53.458;9.940;2023-01-06T10:35:20;4.33;;;4.33;;
9270;SDS011;4673;53.458;9.940;2023-01-06T10:37:49;4.43;;;4.43;;
9270;SDS011;4673;53.458;9.940;2023-01-06T10:45:27;5.10;;;5.10;;
9270;SDS011;4673;53.458;9.940;2023-01-06T10:47:53;4.80;;;4.80;;
9270;SDS011;4673;53.458;9.940;2023-01-06T10:50:20;4.87;;;4.87;;
9270;SDS011;4673;53.458;9.940;2023-01-06T10:52:47;4.87;;;4.87;;
9270;SDS011;4673;53.458;9.940;2023-01-06T10:55:25;4.17;;;4.17;;
9270;SDS011;4673;53.458;9.940;2023-01-06T10:58:20;4.90;;;4.90;;
9270;SDS011;4673;53.458;9.940;2023-01-06T11:01:00;4.00;;;4.00;;
9270;SDS011;4673;53.458;9.940;2023-01-06T11:03:32;4.43;;;4.43;;
9270;SDS011;4673;53.458;9.940;2023-01-06T11:06:09;4.50;;;4.50;;
9270;SDS011;4673;53.458;9.940;2023-01-06T11:08:47;3.80;;;3.80;;
9270;SDS011;4673;53.458;9.940;2023-01-06T11:11:14;3.97;;;3.97;;
9270;SDS011;4673;53.458;9.940;2023-01-06T11:13:45;3.83;;;3.83;;
9270;SDS011;4673;53.458;9.940;2023-01-06T11:16:17;4.00;;;4.00;;
9270;SDS011;4673;53.458;9.940;2023-01-06T11:18:52;3.90;;;3.90;;
9270;SDS011;4673;53.458;9.940;2023-01-06T11:21:20;3.10;;;3.10;;
9270;SDS011;4673;53.458;9.940;2023-01-06T11:23:47;3.23;;;3.23;;
9270;SDS011;4673;53.458;9.940;2023-01-06T11:26:19;3.33;;;3.33;;
9270;SDS011;4673;53.458;9.940;2023-01-06T11:28:48;2.80;;;2.80;;
9270;SDS011;4673;53.458;9.940;2023-01-06T11:31:24;2.47;;;2.47;;
9270;SDS011;4673;53.458;9.940;2023-01-06T11:33:53;1.93;;;1.93;;
9270;SDS011;4673;53.458;9.940;2023-01-06T11:36:25;1.83;;;1.83;;
9270;SDS011;4673;53.458;9.940;2023-01-06T11:38:55;1.80;;;1.80;;
9270;SDS011;4673;53.458;9.940;2023-01-06T11:41:44;1.60;;;1.60;;
9270;SDS011;4673;53.458;9.940;2023-01-06T11:47:04;1.17;;;1.17;;
9270;SDS011;4673;53.458;9.940;2023-01-06T11:49:41;0.93;;;0.93;;
9270;SDS011;4673;53.458;9.940;2023-01-06T11:54:41;1.10;;;1.10;;
9270;SDS011;4673;53.458;9.940;2023-01-06T12:08:18;1.07;;;1.07;;
9270;SDS011;4673;53.458;9.940;2023-01-06T12:10:44;0.80;;;0.80;;
9270;SDS011;4673;53.458;9.940;2023-01-06T12:13:14;0.90;;;0.90;;
9270;SDS011;4673;53.458;9.940;2023-01-06T12:15:40;0.93;;;0.93;;
9270;SDS011;4673;53.458;9.940;2023-01-06T12:20:40;0.80;;;0.80;;
9270;SDS011;4673;53.458;9.940;2023-01-06T12:23:22;1.03;;;1.03;;
9270;SDS011;4673;53.458;9.940;2023-01-06T12:25:53;1.23;;;1.23;;
9270;SDS011;4673;53.458;9.940;2023-01-06T12:28:38;1.00;;;1.00;;
9270;SDS011;4673;53.458;9.940;2023-01-06T12:31:13;1.17;;;1.17;;
9270;SDS011;4673;53.458;9.940;2023-01-06T12:33:53;1.50;;;1.50;;
9270;SDS011;4673;53.458;9.940;2023-01-06T12:36:32;0.93;;;0.93;;
9270;SDS011;4673;53.458;9.940;2023-01-06T12:42:19;1.27;;;1.27;;
9270;SDS011;4673;53.458;9.940;2023-01-06T12:44:58;0.97;;;0.97;;
9270;SDS011;4673;53.458;9.940;2023-01-06T12:50:34;1.00;;;1.00;;
9270;SDS011;4673;53.458;9.940;2023-01-06T12:59:11;1.17;;;1.17;;
9270;SDS011;4673;53.458;9.940;2023-01-06T13:07:47;0.77;;;0.77;;
9270;SDS011;4673;53.458;9.940;2023-01-06T13:15:53;1.17;;;1.17;;
9270;SDS011;4673;53.458;9.940;2023-01-06T13:21:03;0.90;;;0.90;;
9270;SDS011;4673;53.458;9.940;2023-01-06T13:32:11;1.20;;;1.20;;
9270;SDS011;4673;53.458;9.940;2023-01-06T13:37:26;0.80;;;0.80;;
9270;SDS011;4673;53.458;9.940;2023-01-06T13:39:57;1.83;;;1.83;;
9270;SDS011;4673;53.458;9.940;2023-01-06T13:42:50;1.20;;;1.20;;
9270;SDS011;4673;53.458;9.940;2023-01-06T13:45:30;1.23;;;1.23;;
9270;SDS011;4673;53.458;9.940;2023-01-06T13:47:59;1.20;;;1.20;;
9270;SDS011;4673;53.458;9.940;2023-01-06T13:50:32;1.50;;;1.50;;
9270;SDS011;4673;53.458;9.940;2023-01-06T13:53:01;1.23;;;1.23;;
9270;SDS011;4673;53.458;9.940;2023-01-06T13:55:29;1.30;;;1.30;;
9270;SDS011;4673;53.458;9.940;2023-01-06T14:03:32;1.00;;;1.00;;
9270;SDS011;4673;53.458;9.940;2023-01-06T14:05:59;1.10;;;1.10;;
9270;SDS011;4673;53.458;9.940;2023-01-06T14:08:27;1.67;;;1.67;;
9270;SDS011;4673;53.458;9.940;2023-01-06T14:10:59;1.17;;;1.17;;
9270;SDS011;4673;53.458;9.940;2023-01-06T14:13:39;1.57;;;1.57;;
9270;SDS011;4673;53.458;9.940;2023-01-06T14:16:10;0.90;;;0.90;;
9270;SDS011;4673;53.458;9.940;2023-01-06T14:21:29;1.00;;;1.00;;
9270;SDS011;4673;53.458;9.940;2023-01-06T14:23:59;2.10;;;2.10;;
9270;SDS011;4673;53.458;9.940;2023-01-06T14:26:47;1.50;;;1.50;;
9270;SDS011;4673;53.458;9.940;2023-01-06T14:29:59;1.10;;;1.10;;
9270;SDS011;4673;53.458;9.940;2023-01-06T14:34:43;1.07;;;1.07;;
9270;SDS011;4673;53.458;9.940;2023-01-06T14:37:17;0.90;;;0.90;;
9270;SDS011;4673;53.458;9.940;2023-01-06T14:39:48;1.07;;;1.07;;
9270;SDS011;4673;53.458;9.940;2023-01-06T14:42:22;1.20;;;1.20;;
9270;SDS011;4673;53.458;9.940;2023-01-06T14:44:59;1.37;;;1.37;;
9270;SDS011;4673;53.458;9.940;2023-01-06T14:47:55;2.30;;;2.30;;
9270;SDS011;4673;53.458;9.940;2023-01-06T14:50:28;1.30;;;1.30;;
9270;SDS011;4673;53.458;9.940;2023-01-06T14:53:19;1.37;;;1.37;;
9270;SDS011;4673;53.458;9.940;2023-01-06T14:56:09;1.03;;;1.03;;
9270;SDS011;4673;53.458;9.940;2023-01-06T14:58:44;1.10;;;1.10;;
9270;SDS011;4673;53.458;9.940;2023-01-06T15:01:43;0.93;;;0.93;;
9270;SDS011;4673;53.458;9.940;2023-01-06T15:04:03;1.13;;;1.13;;
9270;SDS011;4673;53.458;9.940;2023-01-06T15:06:30;1.23;;;1.23;;
9270;SDS011;4673;53.458;9.940;2023-01-06T15:09:17;1.00;;;1.00;;
9270;SDS011;4673;53.458;9.940;2023-01-06T15:11:44;1.30;;;1.30;;
9270;SDS011;4673;53.458;9.940;2023-01-06T15:14:23;1.57;;;1.57;;
9270;SDS011;4673;53.458;9.940;2023-01-06T15:16:49;1.30;;;1.30;;
9270;SDS011;4673;53.458;9.940;2023-01-06T15:19:16;1.33;;;1.33;;
9270;SDS011;4673;53.458;9.940;2023-01-06T15:21:42;1.20;;;1.20;;
9270;SDS011;4673;53.458;9.940;2023-01-06T15:24:20;1.70;;;1.70;;
9270;SDS011;4673;53.458;9.940;2023-01-06T15:26:52;1.17;;;1.17;;
9270;SDS011;4673;53.458;9.940;2023-01-06T15:29:21;1.43;;;1.43;;
9270;SDS011;4673;53.458;9.940;2023-01-06T15:31:50;1.40;;;1.40;;
9270;SDS011;4673;53.458;9.940;2023-01-06T15:34:21;1.50;;;1.50;;
9270;SDS011;4673;53.458;9.940;2023-01-06T15:36:54;1.47;;;1.47;;
9270;SDS011;4673;53.458;9.940;2023-01-06T15:39:27;1.40;;;1.40;;
9270;SDS011;4673;53.458;9.940;2023-01-06T15:41:55;1.00;;;1.00;;
9270;SDS011;4673;53.458;9.940;2023-01-06T15:44:24;1.40;;;1.40;;
9270;SDS011;4673;53.458;9.940;2023-01-06T15:46:56;1.10;;;1.10;;
9270;SDS011;4673;53.458;9.940;2023-01-06T15:49:39;1.80;;;1.80;;
9270;SDS011;4673;53.458;9.940;2023-01-06T15:52:26;1.60;;;1.60;;
9270;SDS011;4673;53.458;9.940;2023-01-06T15:55:01;1.40;;;1.40;;
9270;SDS011;4673;53.458;9.940;2023-01-06T15:57:31;1.40;;;1.40;;
9270;SDS011;4673;53.458;9.940;2023-01-06T16:00:07;2.03;;;2.03;;
9270;SDS011;4673;53.458;9.940;2023-01-06T16:02:45;1.63;;;1.63;;
9270;SDS011;4673;53.458;9.940;2023-01-06T16:05:31;2.00;;;2.00;;
9270;SDS011;4673;53.458;9.940;2023-01-06T16:08:04;1.30;;;1.30;;
9270;SDS011;4673;53.458;9.940;2023-01-06T16:10:38;2.03;;;2.03;;
9270;SDS011;4673;53.458;9.940;2023-01-06T16:13:11;2.17;;;2.17;;
9270;SDS011;4673;53.458;9.940;2023-01-06T16:15:46;1.40;;;1.40;;
9270;SDS011;4673;53.458;9.940;2023-01-06T16:18:12;1.37;;;1.37;;
9270;SDS011;4673;53.458;9.940;2023-01-06T16:20:38;1.30;;;1.30;;
9270;SDS011;4673;53.458;9.940;2023-01-06T16:23:04;2.00;;;2.00;;
9270;SDS011;4673;53.458;9.940;2023-01-06T16:25:31;1.67;;;1.67;;
9270;SDS011;4673;53.458;9.940;2023-01-06T16:27:59;1.40;;;1.40;;
9270;SDS011;4673;53.458;9.940;2023-01-06T16:32:55;1.90;;;1.90;;
9270;SDS011;4673;53.458;9.940;2023-01-06T16:35:25;1.57;;;1.57;;
9270;SDS011;4673;53.458;9.940;2023-01-06T16:37:52;2.33;;;2.33;;
9270;SDS011;4673;53.458;9.940;2023-01-06T16:40:19;1.40;;;1.40;;
9270;SDS011;4673;53.458;9.940;2023-01-06T16:42:46;1.30;;;1.30;;
9270;SDS011;4673;53.458;9.940;2023-01-06T16:48:13;1.97;;;1.97;;
9270;SDS011;4673;53.458;9.940;2023-01-06T16:50:41;1.20;;;1.20;;
9270;SDS011;4673;53.458;9.940;2023-01-06T16:53:17;1.67;;;1.67;;
9270;SDS011;4673;53.458;9.940;2023-01-06T16:55:49;1.70;;;1.70;;
9270;SDS011;4673;53.458;9.940;2023-01-06T16:58:17;2.03;;;2.03;;
9270;SDS011;4673;53.458;9.940;2023-01-06T17:00:44;2.10;;;2.10;;
9270;SDS011;4673;53.458;9.940;2023-01-06T17:03:19;3.07;;;3.07;;
9270;SDS011;4673;53.458;9.940;2023-01-06T17:05:46;2.17;;;2.17;;
9270;SDS011;4673;53.458;9.940;2023-01-06T17:08:13;2.50;;;2.50;;
9270;SDS011;4673;53.458;9.940;2023-01-06T17:10:40;2.03;;;2.03;;
9270;SDS011;4673;53.458;9.940;2023-01-06T17:13:09;2.73;;;2.73;;
9270;SDS011;4673;53.458;9.940;2023-01-06T17:15:59;2.17;;;2.17;;
9270;SDS011;4673;53.458;9.940;2023-01-06T17:18:49;1.63;;;1.63;;
9270;SDS011;4673;53.458;9.940;2023-01-06T17:21:36;2.50;;;2.50;;
9270;SDS011;4673;53.458;9.940;2023-01-06T17:24:24;1.80;;;1.80;;
9270;SDS011;4673;53.458;9.940;2023-01-06T17:26:56;1.83;;;1.83;;
9270;SDS011;4673;53.458;9.940;2023-01-06T17:29:25;2.33;;;2.33;;
9270;SDS011;4673;53.458;9.940;2023-01-06T17:31:57;2.53;;;2.53;;
9270;SDS011;4673;53.458;9.940;2023-01-06T17:34:29;2.97;;;2.97;;
9270;SDS011;4673;53.458;9.940;2023-01-06T17:36:59;2.20;;;2.20;;
9270;SDS011;4673;53.458;9.940;2023-01-06T17:39:33;3.37;;;3.37;;
9270;SDS011;4673;53.458;9.940;2023-01-06T17:45:16;2.43;;;2.43;;
9270;SDS011;4673;53.458;9.940;2023-01-06T17:57:55;2.90;;;2.90;;
9270;SDS011;4673;53.458;9.940;2023-01-06T18:00:24;1.93;;;1.93;;
9270;SDS011;4673;53.458;9.940;2023-01-06T18:03:01;2.17;;;2.17;;
9270;SDS011;4673;53.458;9.940;2023-01-06T18:10:48;2.60;;;2.60;;
9270;SDS011;4673;53.458;9.940;2023-01-06T18:13:23;2.43;;;2.43;;
9270;SDS011;4673;53.458;9.940;2023-01-06T18:15:51;2.57;;;2.57;;
9270;SDS011;4673;53.458;9.940;2023-01-06T18:18:26;2.00;;;2.00;;